Time;durP1;ratioP1;P1;durP2;ratioP2;P2;SDS_P1;SDS_P2;PMS_P1;PMS_P2;Temp;Humidity;BMP_temperature;BMP_pressure;BME280_temperature;BME280_humidity;BME280_pressure;Samples;Min_cycle;Max_cycle;Signal;HPM_P1;HPM_P2
2021/08/27 08:56:54;;;;;;;7.05;5.65;;;;;;;;;;2106932;27;100027;-21
2021/08/27 08:57:57;;;;;;;9.05;5.72;;;;;;;;;;2100984;27;100056;-18
2021/08/27 08:58:58;;;;;;;8.90;6.35;;;;;;;;;;2096864;27;100390;-19
2021/08/27 08:59:59;;;;;;;10.57;5.72;;;;;;;;;;2097096;27;100192;-20
2021/08/27 09:01:01;;;;;;;9.25;5.78;;;;;;;;;;2087940;27;100061;-17
2021/08/27 09:02:02;;;;;;;10.98;5.85;;;;;;;;;;2093239;27;100025;-18
2021/08/27 09:03:04;;;;;;;10.30;5.97;;;;;;;;;;2105600;27;99991;-19
2021/08/27 09:04:05;;;;;;;9.75;5.78;;;;;;;;;;2105519;27;100037;-17
2021/08/27 09:05:06;;;;;;;;;;;;;;;;;;2106306;27;100333;-19
2021/08/27 09:06:08;;;;;;;9.93;5.75;;;;;;;;;;2104168;27;100127;-20
2021/08/27 09:07:09;;;;;;;8.48;5.78;;;;;;;;;;2105389;27;100118;-17
2021/08/27 09:08:10;;;;;;;9.07;5.95;;;;;;;;;;2105795;27;100378;-18
2021/08/27 09:09:26;;;;;;;11.75;5.80;;;;;;;;;;2105727;27;100422;-18
2021/08/27 09:10:27;;;;;;;9.13;5.85;;;;;;;;;;2105689;27;99966;-18
2021/08/27 09:11:29;;;;;;;9.45;5.80;;;;;;;;;;2099082;27;100114;-18
2021/08/27 09:12:31;;;;;;;8.77;5.60;;;;;;;;;;2096974;27;100185;-19
2021/08/27 09:13:32;;;;;;;7.93;5.50;;;;;;;;;;2096766;27;100013;-21
2021/08/27 09:14:33;;;;;;;10.50;5.65;;;;;;;;;;2096770;27;99920;-21
2021/08/27 09:15:33;;;;;;;;;;;;;;;;;;2098969;27;100028;-22
2021/08/27 09:16:36;;;;;;;9.20;5.35;;;;;;;;;;2104784;27;100209;-20
2021/08/27 09:17:39;;;;;;;9.77;5.47;;;;;;;;;;2096805;27;99994;-21
2021/08/27 09:18:45;;;;;;;13.15;5.95;;;;;;;;;;2096582;27;100132;-20
2021/08/27 09:19:54;;;;;;;8.07;5.72;;;;;;;;;;2096736;27;100015;-19
2021/08/27 09:20:55;;;;;;;7.35;5.30;;;;;;;;;;2097490;27;99952;-21
2021/08/27 09:21:55;;;;;;;8.48;5.45;;;;;;;;;;2105188;27;99986;-21
2021/08/27 09:23:00;;;;;;;;;;;;;;;;;;2105302;27;100079;-20
2021/08/27 09:24:15;;;;;;;9.30;5.22;;;;;;;;;;2105902;27;99867;-21
2021/08/27 09:25:27;;;;;;;7.43;4.95;;;;;;;;;;2105885;27;100266;-22
2021/08/27 09:26:36;;;;;;;9.88;5.28;;;;;;;;;;2105812;27;100264;-20
2021/08/27 09:28:10;;;;;;;9.25;5.90;;;;;;;;;;2105717;27;99879;-20
2021/08/27 09:29:11;;;;;;;7.88;5.18;;;;;;;;;;2106054;27;100049;-19
2021/08/27 09:30:12;;;;;;;8.13;5.43;;;;;;;;;;2106259;27;100186;-20
2021/08/27 09:31:13;;;;;;;9.15;5.03;;;;;;;;;;2105952;27;99941;-22
2021/08/27 09:32:25;;;;;;;;;;;;;;;;;;2106703;27;100241;-20
2021/08/27 09:33:35;;;;;;;10.25;5.30;;;;;;;;;;2105504;27;100059;-20
2021/08/27 09:34:35;;;;;;;10.07;5.22;;;;;;;;;;2105385;27;100116;-20
2021/08/27 09:35:36;;;;;;;;;;;;;;;;;;2106821;27;100123;-22
2021/08/27 09:36:37;;;;;;;11.98;6.38;;;;;;;;;;2106035;27;99979;-20
2021/08/27 09:37:42;;;;;;;12.02;6.03;;;;;;;;;;2105754;27;100003;-20
2021/08/27 09:38:43;;;;;;;9.02;5.70;;;;;;;;;;2105984;27;99862;-20
2021/08/27 09:39:43;;;;;;;;;;;;;;;;;;2105484;27;100003;-19
2021/08/27 09:40:48;;;;;;;12.32;5.85;;;;;;;;;;2105035;27;100378;-18
2021/08/27 09:41:56;;;;;;;12.68;5.22;;;;;;;;;;2104994;27;99931;-19
2021/08/27 09:42:59;;;;;;;9.68;5.50;;;;;;;;;;2104909;27;100035;-21
2021/08/27 09:44:01;;;;;;;10.10;5.18;;;;;;;;;;2104819;27;99961;-19
2021/08/27 09:45:03;;;;;;;9.82;5.38;;;;;;;;;;2105698;27;100465;-19
2021/08/27 09:46:04;;;;;;;10.10;5.72;;;;;;;;;;2090906;27;100132;-18
2021/08/27 09:47:07;;;;;;;;;;;;;;;;;;2087848;27;100401;-21
2021/08/27 09:48:10;;;;;;;10.40;5.60;;;;;;;;;;2096509;27;100044;-19
2021/08/27 09:49:32;;;;;;;10.85;5.68;;;;;;;;;;2096221;27;100394;-18
2021/08/27 09:50:34;;;;;;;;;;;;;;;;;;2097060;27;99936;-20
2021/08/27 09:51:40;;;;;;;9.88;5.72;;;;;;;;;;2097120;27;99818;-20
2021/08/27 09:52:50;;;;;;;11.90;5.63;;;;;;;;;;2094566;27;99864;-18
2021/08/27 09:53:52;;;;;;;8.88;6.30;;;;;;;;;;2089282;27;99980;-19
2021/08/27 09:55:06;;;;;;;13.48;5.60;;;;;;;;;;2089269;27;99932;-21
2021/08/27 09:56:06;;;;;;;10.43;5.88;;;;;;;;;;2088250;27;100049;-19
2021/08/27 09:57:12;;;;;;;7.47;5.40;;;;;;;;;;2087345;27;99940;-20
2021/08/27 09:58:12;;;;;;;9.30;5.47;;;;;;;;;;2083188;27;100070;-21
2021/08/27 09:59:13;;;;;;;;;;;;;;;;;;2083932;28;100096;-22
2021/08/27 10:00:21;;;;;;;9.85;5.68;;;;;;;;;;2083844;27;100008;-19
2021/08/27 10:01:22;;;;;;;15.48;6.00;;;;;;;;;;2083874;27;99812;-19
2021/08/27 10:02:33;;;;;;;9.98;5.45;;;;;;;;;;2083178;27;99927;-21
2021/08/27 10:03:34;;;;;;;11.30;6.10;;;;;;;;;;2083838;28;99753;-19
2021/08/27 10:04:49;;;;;;;8.80;5.78;;;;;;;;;;2083111;28;99850;-20
2021/08/27 10:05:53;;;;;;;8.27;5.22;;;;;;;;;;2083750;28;100258;-19
2021/08/27 10:06:54;;;;;;;11.32;5.53;;;;;;;;;;2083836;27;99818;-21
2021/08/27 10:07:55;;;;;;;;;;;;;;;;;;2083920;28;99975;-18
2021/08/27 10:08:56;;;;;;;9.38;5.45;;;;;;;;;;2082837;28;99932;-20
2021/08/27 10:09:59;;;;;;;12.35;5.38;;;;;;;;;;2082711;28;100041;-21
2021/08/27 10:11:21;;;;;;;9.90;5.88;;;;;;;;;;2083789;27;99890;-19
2021/08/27 10:12:25;;;;;;;10.75;5.78;;;;;;;;;;2083482;28;99868;-17
2021/08/27 10:13:26;;;;;;;11.43;6.30;;;;;;;;;;2083561;28;100299;-18
2021/08/27 10:14:26;;;;;;;;;;;;;;;;;;2083768;27;100023;-18
2021/08/27 10:15:27;;;;;;;9.70;5.78;;;;;;;;;;2083714;28;99917;-20
2021/08/27 10:16:32;;;;;;;7.90;5.60;;;;;;;;;;2083427;28;99815;-21
2021/08/27 10:17:35;;;;;;;11.52;5.57;;;;;;;;;;2065870;28;100033;-21
2021/08/27 10:18:36;;;;;;;13.25;5.50;;;;;;;;;;2072833;27;100712;-21
2021/08/27 10:19:37;;;;;;;14.35;6.07;;;;;;;;;;2091606;27;99959;-18
2021/08/27 10:20:41;;;;;;;;;;;;;;;;;;2091779;27;100330;-19
2021/08/27 10:21:42;;;;;;;14.77;5.60;;;;;;;;;;2090491;27;100063;-22
2021/08/27 10:22:43;;;;;;;;;;;;;;;;;;2082574;28;99845;-21
2021/08/27 10:23:44;;;;;;;14.03;6.00;;;;;;;;;;2091062;27;100126;-19
2021/08/27 10:24:46;;;;;;;15.85;5.65;;;;;;;;;;2090624;27;99976;-18
2021/08/27 10:25:48;;;;;;;12.95;5.75;;;;;;;;;;2090979;27;100160;-18
2021/08/27 10:26:48;;;;;;;15.40;5.90;;;;;;;;;;2091318;27;100046;-18
2021/08/27 10:27:51;;;;;;;13.65;5.50;;;;;;;;;;2090564;27;100218;-19
2021/08/27 10:28:53;;;;;;;10.82;5.85;;;;;;;;;;2090751;27;99936;-18
2021/08/27 10:29:56;;;;;;;15.75;6.00;;;;;;;;;;2091560;27;99841;-21
2021/08/27 10:30:59;;;;;;;11.95;5.32;;;;;;;;;;2091234;27;99975;-20
2021/08/27 10:32:00;;;;;;;15.68;6.47;;;;;;;;;;2091362;27;99949;-19
2021/08/27 10:33:00;;;;;;;;;;;;;;;;;;2091635;27;99909;-19
2021/08/27 10:34:01;;;;;;;12.45;5.68;;;;;;;;;;2091061;27;99891;-17
2021/08/27 10:35:02;;;;;;;15.52;6.20;;;;;;;;;;2090752;27;99948;-20
2021/08/27 10:36:03;;;;;;;15.68;6.38;;;;;;;;;;2091438;27;100057;-21
2021/08/27 10:37:04;;;;;;;17.67;6.32;;;;;;;;;;2091181;27;100089;-22
2021/08/27 10:38:05;;;;;;;;;;;;;;;;;;2091856;27;99921;-20
2021/08/27 10:39:06;;;;;;;12.25;5.32;;;;;;;;;;2091433;27;100116;-19
2021/08/27 10:40:22;;;;;;;11.40;5.50;;;;;;;;;;2090877;27;100095;-20
2021/08/27 10:41:36;;;;;;;18.13;5.88;;;;;;;;;;2091135;27;99899;-20
2021/08/27 10:42:52;;;;;;;10.80;5.65;;;;;;;;;;2091399;27;100022;-22
2021/08/27 10:44:01;;;;;;;14.43;5.82;;;;;;;;;;2090927;27;100414;-23
2021/08/27 10:45:02;;;;;;;9.77;5.32;;;;;;;;;;2090431;27;100399;-21
2021/08/27 10:46:03;;;;;;;9.30;5.55;;;;;;;;;;2082074;28;100232;-20
2021/08/27 10:47:05;;;;;;;;;;;;;;;;;;2082784;27;100022;-20
2021/08/27 10:48:11;;;;;;;12.32;6.05;;;;;;;;;;2090477;27;100381;-20
2021/08/27 10:49:14;;;;;;;15.48;5.68;;;;;;;;;;2091319;27;99847;-18
2021/08/27 10:50:29;;;;;;;18.52;6.50;;;;;;;;;;2090939;27;99982;-19
2021/08/27 10:51:32;;;;;;;14.75;6.28;;;;;;;;;;2090090;27;100118;-20
2021/08/27 10:52:38;;;;;;;15.10;5.95;;;;;;;;;;2090741;27;99886;-23
2021/08/27 10:53:39;;;;;;;15.88;5.93;;;;;;;;;;2090862;27;100008;-20
2021/08/27 10:55:11;;;;;;;17.40;6.63;;;;;;;;;;2089499;27;100057;-22
2021/08/27 10:56:50;;;;;;;13.73;5.40;;;;;;;;;;2088167;27;100087;-19
2021/08/27 10:58:00;;;;;;;10.35;5.25;;;;;;;;;;2090639;27;100338;-23
2021/08/27 10:59:08;;;;;;;12.93;5.75;;;;;;;;;;2073014;28;99974;-28
2021/08/27 11:00:11;;;;;;;10.77;5.72;;;;;;;;;;2057082;28;100072;-22
2021/08/27 11:01:33;;;;;;;14.52;5.68;;;;;;;;;;2066436;27;100246;-20
2021/08/27 11:02:54;;;;;;;11.00;5.38;;;;;;;;;;2081651;28;100245;-20
2021/08/27 11:04:04;;;;;;;;;;;;;;;;;;2060283;28;100133;-22
2021/08/27 11:05:06;;;;;;;13.25;5.82;;;;;;;;;;2070713;27;100425;-22
2021/08/27 11:06:14;;;;;;;14.27;5.55;;;;;;;;;;2089516;27;100217;-17
2021/08/27 11:07:20;;;;;;;14.25;5.78;;;;;;;;;;2091535;27;99943;-18
2021/08/27 11:08:32;;;;;;;11.18;5.65;;;;;;;;;;2092792;27;100716;-22
2021/08/27 11:09:35;;;;;;;13.25;5.55;;;;;;;;;;2090794;27;100621;-21
2021/08/27 11:10:39;;;;;;;13.82;5.20;;;;;;;;;;2085882;27;100083;-19
2021/08/27 11:11:40;;;;;;;13.63;6.18;;;;;;;;;;2090868;27;100107;-19
2021/08/27 11:12:42;;;;;;;11.48;5.45;;;;;;;;;;2093756;27;100009;-22
2021/08/27 11:13:43;;;;;;;10.77;5.00;;;;;;;;;;2086583;27;101028;-20
2021/08/27 11:14:46;;;;;;;11.55;5.55;;;;;;;;;;2090601;27;100416;-19
2021/08/27 11:15:47;;;;;;;11.73;5.38;;;;;;;;;;2089731;27;100136;-22
2021/08/27 11:16:58;;;;;;;;;;;;;;;;;;2092248;27;100354;-18
2021/08/27 11:18:26;;;;;;;10.52;5.20;;;;;;;;;;2092383;27;100039;-19
2021/08/27 11:19:36;;;;;;;18.05;5.75;;;;;;;;;;2083086;27;102110;-20
2021/08/27 11:20:37;;;;;;;13.45;6.25;;;;;;;;;;2089047;27;100080;-21
2021/08/27 11:21:40;;;;;;;18.42;5.70;;;;;;;;;;2092220;27;100154;-23
2021/08/27 11:22:53;;;;;;;11.85;5.55;;;;;;;;;;2090832;27;100038;-19
2021/08/27 11:23:55;;;;;;;13.15;5.70;;;;;;;;;;2089258;27;100442;-21
2021/08/27 11:25:02;;;;;;;12.50;5.43;;;;;;;;;;2090797;27;100085;-21
2021/08/27 11:26:05;;;;;;;14.32;5.55;;;;;;;;;;2090348;27;99937;-22
2021/08/27 11:27:15;;;;;;;13.20;5.68;;;;;;;;;;2090336;27;100493;-21
2021/08/27 11:28:17;;;;;;;14.70;5.43;;;;;;;;;;2091310;27;100146;-20
2021/08/27 11:29:35;;;;;;;10.68;5.43;;;;;;;;;;2090287;27;100715;-18
2021/08/27 11:30:38;;;;;;;12.70;5.82;;;;;;;;;;2091017;27;100857;-19
2021/08/27 11:31:42;;;;;;;11.68;5.60;;;;;;;;;;2090608;27;100073;-20
2021/08/27 11:32:43;;;;;;;13.73;5.50;;;;;;;;;;2089715;27;99941;-20
2021/08/27 11:33:48;;;;;;;;;;;;;;;;;;2091884;27;99880;-20
2021/08/27 11:34:54;;;;;;;11.57;5.32;;;;;;;;;;2091863;27;100450;-21
2021/08/27 11:35:55;;;;;;;15.73;5.30;;;;;;;;;;2090066;27;99938;-21
2021/08/27 11:36:59;;;;;;;12.77;5.82;;;;;;;;;;2091928;27;100688;-18
2021/08/27 11:38:05;;;;;;;13.18;5.93;;;;;;;;;;2090553;27;99998;-21
2021/08/27 11:39:08;;;;;;;11.10;5.70;;;;;;;;;;2090400;27;99950;-20
2021/08/27 11:40:14;;;;;;;10.63;5.38;;;;;;;;;;2089104;27;100186;-19
2021/08/27 11:41:15;;;;;;;11.82;5.63;;;;;;;;;;2090294;27;99985;-19
2021/08/27 11:42:17;;;;;;;9.57;5.50;;;;;;;;;;2090207;27;99926;-18
2021/08/27 11:43:33;;;;;;;11.57;5.82;;;;;;;;;;2085984;27;100509;-20
2021/08/27 11:44:41;;;;;;;13.57;5.05;;;;;;;;;;2085242;27;100398;-20
2021/08/27 11:45:42;;;;;;;13.35;5.88;;;;;;;;;;2082328;28;99978;-20
2021/08/27 11:46:46;;;;;;;;;;;;;;;;;;2088355;27;99986;-18
2021/08/27 11:47:52;;;;;;;12.50;5.32;;;;;;;;;;2082100;27;100133;-21
2021/08/27 11:48:59;;;;;;;11.60;5.20;;;;;;;;;;2082603;27;99885;-20
2021/08/27 11:50:01;;;;;;;10.75;5.70;;;;;;;;;;2090046;27;100079;-20
2021/08/27 11:51:05;;;;;;;13.70;5.45;;;;;;;;;;2082537;27;100383;-20
2021/08/27 11:52:14;;;;;;;9.77;5.47;;;;;;;;;;2082537;27;100015;-21
2021/08/27 11:53:16;;;;;;;15.73;5.68;;;;;;;;;;2082190;27;100115;-19
2021/08/27 11:54:18;;;;;;;11.50;5.47;;;;;;;;;;2081926;28;99997;-19
2021/08/27 11:55:19;;;;;;;10.45;5.47;;;;;;;;;;2081801;27;100032;-20
2021/08/27 11:56:23;;;;;;;;;;;;;;;;;;2082177;27;100073;-22
2021/08/27 11:57:25;;;;;;;12.93;5.78;;;;;;;;;;2082618;28;99887;-19
2021/08/27 11:58:41;;;;;;;9.98;5.50;;;;;;;;;;2081302;27;99989;-20
2021/08/27 11:59:43;;;;;;;9.77;5.40;;;;;;;;;;2093978;27;100022;-20
2021/08/27 12:00:45;;;;;;;10.70;5.05;;;;;;;;;;2106993;27;99943;-23
2021/08/27 12:01:46;;;;;;;11.93;5.15;;;;;;;;;;2098405;27;100419;-19
2021/08/27 12:02:51;;;;;;;;;;;;;;;;;;2094618;27;99963;-19
2021/08/27 12:03:52;;;;;;;13.40;5.47;;;;;;;;;;2090949;27;99853;-19
2021/08/27 12:05:02;;;;;;;10.50;5.90;;;;;;;;;;2090421;27;100220;-20
2021/08/27 12:06:27;;;;;;;12.30;5.18;;;;;;;;;;2088551;27;101314;-18
2021/08/27 12:07:29;;;;;;;8.45;5.45;;;;;;;;;;2090899;27;99981;-20
2021/08/27 12:08:30;;;;;;;9.82;5.18;;;;;;;;;;2087520;27;100068;-19
2021/08/27 12:09:30;;;;;;;;;;;;;;;;;;2088909;27;100132;-18
2021/08/27 12:10:33;;;;;;;15.63;5.57;;;;;;;;;;2084609;27;100991;-20
2021/08/27 12:11:34;;;;;;;13.38;5.90;;;;;;;;;;2084524;27;100302;-16
2021/08/27 12:12:38;;;;;;;14.35;5.38;;;;;;;;;;2085315;27;100221;-19
2021/08/27 12:13:54;;;;;;;9.48;5.47;;;;;;;;;;2078696;28;100166;-19
2021/08/27 12:14:55;;;;;;;16.63;6.00;;;;;;;;;;2084835;27;100196;-18
2021/08/27 12:16:07;;;;;;;;;;;;;;;;;;2090819;27;100321;-18
2021/08/27 12:17:08;;;;;;;16.63;7.47;;;;;;;;;;2087607;27;100178;-17
2021/08/27 12:18:16;;;;;;;20.52;8.23;;;;;;;;;;2080858;27;100120;-17
2021/08/27 12:19:17;;;;;;;23.20;7.90;;;;;;;;;;2089773;27;100112;-21
2021/08/27 12:20:19;;;;;;;;;;;;;;;;;;2090961;27;99983;-18
2021/08/27 12:21:24;;;;;;;;;;;;;;;;;;2090566;27;100158;-21
2021/08/27 12:22:37;;;;;;;21.80;7.13;;;;;;;;;;2090869;27;100182;-21
2021/08/27 12:23:39;;;;;;;18.95;7.57;;;;;;;;;;2090124;27;99962;-21
2021/08/27 12:24:40;;;;;;;16.58;7.22;;;;;;;;;;2087770;27;99882;-18
2021/08/27 12:25:47;;;;;;;21.15;7.20;;;;;;;;;;2088779;27;101453;-20
2021/08/27 12:26:48;;;;;;;13.63;6.78;;;;;;;;;;2086037;27;100006;-18
2021/08/27 12:27:53;;;;;;;16.17;6.60;;;;;;;;;;2089184;27;100063;-20
2021/08/27 12:28:53;;;;;;;18.48;7.05;;;;;;;;;;2089676;27;100151;-20
2021/08/27 12:30:11;;;;;;;16.17;6.97;;;;;;;;;;2089332;27;99973;-19
2021/08/27 12:31:13;;;;;;;12.25;5.85;;;;;;;;;;2094751;27;99928;-18
2021/08/27 12:32:16;;;;;;;10.55;5.75;;;;;;;;;;2081029;28;100010;-18
2021/08/27 12:33:18;;;;;;;14.75;6.10;;;;;;;;;;2081881;27;100113;-22
2021/08/27 12:34:19;;;;;;;11.82;5.68;;;;;;;;;;2092464;27;99942;-22
2021/08/27 12:35:28;;;;;;;14.43;6.40;;;;;;;;;;2089445;27;100092;-19
2021/08/27 12:36:35;;;;;;;15.80;6.40;;;;;;;;;;2089147;27;99999;-22
2021/08/27 12:37:37;;;;;;;15.27;6.80;;;;;;;;;;2095860;27;99877;-19
2021/08/27 12:38:40;;;;;;;17.25;6.78;;;;;;;;;;2092817;27;100064;-22
2021/08/27 12:39:41;;;;;;;15.82;6.10;;;;;;;;;;2089769;27;99993;-18
2021/08/27 12:40:43;;;;;;;13.60;6.72;;;;;;;;;;2088819;27;100037;-28
2021/08/27 12:41:44;;;;;;;17.48;7.00;;;;;;;;;;2089743;27;99959;-22
2021/08/27 12:43:02;;;;;;;18.33;6.60;;;;;;;;;;2088962;27;99979;-19
2021/08/27 12:44:14;;;;;;;15.90;6.28;;;;;;;;;;2089491;27;99896;-20
2021/08/27 12:45:15;;;;;;;11.35;5.53;;;;;;;;;;2089198;27;99976;-20
2021/08/27 12:46:25;;;;;;;;;;;;;;;;;;2081476;28;100000;-20
2021/08/27 12:47:36;;;;;;;11.15;5.78;;;;;;;;;;2089151;27;100091;-22
2021/08/27 12:48:37;;;;;;;16.50;6.67;;;;;;;;;;2089352;27;100355;-19
2021/08/27 12:49:56;;;;;;;14.00;6.38;;;;;;;;;;2087507;27;100105;-21
2021/08/27 12:51:03;;;;;;;17.08;6.38;;;;;;;;;;2083356;27;100131;-20
2021/08/27 12:52:07;;;;;;;12.30;5.72;;;;;;;;;;2088972;27;99984;-22
2021/08/27 12:53:08;;;;;;;16.38;6.45;;;;;;;;;;2089753;27;100520;-21
2021/08/27 12:54:11;;;;;;;14.85;6.05;;;;;;;;;;2064280;28;100896;-20
2021/08/27 12:55:21;;;;;;;10.55;6.35;;;;;;;;;;2056306;28;100075;-19
2021/08/27 12:56:23;;;;;;;17.90;7.25;;;;;;;;;;2086414;27;100170;-21
2021/08/27 12:57:24;;;;;;;13.23;6.55;;;;;;;;;;2089689;27;100086;-19
2021/08/27 12:58:35;;;;;;;15.90;6.78;;;;;;;;;;2089205;27;99943;-19
2021/08/27 12:59:36;;;;;;;15.52;7.00;;;;;;;;;;2090108;27;99879;-18
2021/08/27 13:00:37;;;;;;;16.48;6.50;;;;;;;;;;2088945;27;100036;-23
2021/08/27 13:01:38;;;;;;;;;;;;;;;;;;2089505;27;100002;-21
2021/08/27 13:02:39;;;;;;;19.70;6.80;;;;;;;;;;2089287;27;100046;-21
2021/08/27 13:03:41;;;;;;;20.15;6.20;;;;;;;;;;2089351;27;100016;-20
2021/08/27 13:04:46;;;;;;;15.95;6.68;;;;;;;;;;2089554;27;99951;-21
2021/08/27 13:05:49;;;;;;;14.52;6.35;;;;;;;;;;2089264;27;99921;-22
2021/08/27 13:06:52;;;;;;;17.13;6.68;;;;;;;;;;2090240;27;100679;-20
2021/08/27 13:08:07;;;;;;;20.90;6.65;;;;;;;;;;2091403;27;100507;-19
2021/08/27 13:09:12;;;;;;;11.77;6.10;;;;;;;;;;2090534;27;99989;-22
2021/08/27 13:10:22;;;;;;;15.00;6.88;;;;;;;;;;2090151;27;100042;-21
2021/08/27 13:11:23;;;;;;;13.73;6.55;;;;;;;;;;2088518;27;101053;-21
2021/08/27 13:12:32;;;;;;;20.98;7.70;;;;;;;;;;2089155;27;100086;-20
2021/08/27 13:13:39;;;;;;;20.33;7.53;;;;;;;;;;2087005;27;99965;-22
2021/08/27 13:14:40;;;;;;;15.90;6.90;;;;;;;;;;2080688;28;100359;-17
2021/08/27 13:15:41;;;;;;;19.88;7.05;;;;;;;;;;2088376;27;100078;-21
2021/08/27 13:16:56;;;;;;;16.27;7.28;;;;;;;;;;2089225;27;100667;-22
2021/08/27 13:18:05;;;;;;;16.70;7.00;;;;;;;;;;2089787;27;100365;-20
2021/08/27 13:19:06;;;;;;;14.93;7.15;;;;;;;;;;2090618;27;100184;-22
2021/08/27 13:20:07;;;;;;;;;;;;;;;;;;2098255;27;100004;-20
2021/08/27 13:21:08;;;;;;;15.10;7.05;;;;;;;;;;2098015;27;99974;-21
2021/08/27 13:22:17;;;;;;;15.82;6.70;;;;;;;;;;2087471;27;100159;-19
2021/08/27 13:23:22;;;;;;;14.82;7.05;;;;;;;;;;2089393;27;100024;-21
2021/08/27 13:24:33;;;;;;;13.77;6.97;;;;;;;;;;2089962;27;100007;-20
2021/08/27 13:25:35;;;;;;;12.30;6.57;;;;;;;;;;2090516;27;99993;-19
2021/08/27 13:26:37;;;;;;;15.63;7.22;;;;;;;;;;2089176;27;100113;-21
2021/08/27 13:27:40;;;;;;;13.80;6.25;;;;;;;;;;2089763;27;100115;-18
2021/08/27 13:28:41;;;;;;;14.10;6.32;;;;;;;;;;2090016;27;99912;-19
2021/08/27 13:29:41;;;;;;;;;;;;;;;;;;2090553;27;99888;-18
2021/08/27 13:30:43;;;;;;;13.88;6.53;;;;;;;;;;2090198;27;99978;-18
2021/08/27 13:31:44;;;;;;;19.02;7.07;;;;;;;;;;2089426;27;99897;-21
2021/08/27 13:32:51;;;;;;;;;;;;;;;;;;2090356;27;99873;-19
2021/08/27 13:33:52;;;;;;;15.00;6.63;;;;;;;;;;2091688;27;100021;-21
2021/08/27 13:34:54;;;;;;;18.17;7.32;;;;;;;;;;2091547;27;99901;-19
2021/08/27 13:35:55;;;;;;;20.40;6.93;;;;;;;;;;2082642;28;99859;-21
2021/08/27 13:36:55;;;;;;;;;;;;;;;;;;2083003;27;100099;-20
2021/08/27 13:37:56;;;;;;;19.33;7.45;;;;;;;;;;2091806;27;99910;-20
2021/08/27 13:38:57;;;;;;;15.38;7.00;;;;;;;;;;2091582;27;99984;-20
2021/08/27 13:39:58;;;;;;;17.58;7.10;;;;;;;;;;2091932;27;100258;-18
2021/08/27 13:40:59;;;;;;;;;;;;;;;;;;2089517;27;100031;-20
2021/08/27 13:41:59;;;;;;;14.45;6.78;;;;;;;;;;2091042;27;99983;-19
2021/08/27 13:43:01;;;;;;;18.50;7.15;;;;;;;;;;2091434;27;100015;-18
2021/08/27 13:44:02;;;;;;;16.83;6.93;;;;;;;;;;2090557;27;99952;-19
2021/08/27 13:45:04;;;;;;;17.48;6.88;;;;;;;;;;2073409;28;99912;-22
2021/08/27 13:46:05;;;;;;;18.70;7.22;;;;;;;;;;2072992;27;100531;-22
2021/08/27 13:47:06;;;;;;;;;;;;;;;;;;2084741;27;100101;-20
2021/08/27 13:48:07;;;;;;;12.45;6.10;;;;;;;;;;2076914;28;100809;-21
2021/08/27 13:49:08;;;;;;;15.30;7.03;;;;;;;;;;2081494;27;100081;-19
2021/08/27 13:50:10;;;;;;;19.05;7.25;;;;;;;;;;2091520;27;100038;-19
2021/08/27 13:51:11;;;;;;;18.50;7.30;;;;;;;;;;2091190;27;100009;-22
2021/08/27 13:52:12;;;;;;;;;;;;;;;;;;2089396;27;100047;-21
2021/08/27 13:53:13;;;;;;;13.75;6.68;;;;;;;;;;2090316;27;99983;-19
2021/08/27 13:54:14;;;;;;;12.88;6.25;;;;;;;;;;2090911;27;100228;-21
2021/08/27 13:55:17;;;;;;;18.02;6.45;;;;;;;;;;2091111;27;100099;-21
2021/08/27 13:56:18;;;;;;;13.35;6.45;;;;;;;;;;2090322;27;100218;-18
2021/08/27 13:57:19;;;;;;;;;;;;;;;;;;2091114;27;100122;-19
2021/08/27 13:58:20;;;;;;;14.10;6.93;;;;;;;;;;2091895;27;99887;-17
2021/08/27 13:59:22;;;;;;;;;;;;;;;;;;2087738;27;99938;-21
2021/08/27 14:00:23;;;;;;;13.25;6.70;;;;;;;;;;2074671;28;99842;-21
2021/08/27 14:01:23;;;;;;;;;;;;;;;;;;2077066;28;100221;-18
2021/08/27 14:02:24;;;;;;;17.17;6.43;;;;;;;;;;2085996;27;99910;-18
2021/08/27 14:03:25;;;;;;;10.63;6.60;;;;;;;;;;2088431;27;99971;-20
2021/08/27 14:04:26;;;;;;;;;;;;;;;;;;2091421;27;99980;-18
2021/08/27 14:05:27;;;;;;;14.07;6.50;;;;;;;;;;2090312;27;100647;-18
2021/08/27 14:06:29;;;;;;;13.82;6.50;;;;;;;;;;2086856;27;99992;-18
2021/08/27 14:07:29;;;;;;;;;;;;;;;;;;2085801;27;100103;-20
2021/08/27 14:08:32;;;;;;;18.38;6.80;;;;;;;;;;2091344;27;100080;-20
2021/08/27 14:09:33;;;;;;;18.60;7.53;;;;;;;;;;2075165;28;100091;-16
2021/08/27 14:10:33;;;;;;;;;;;;;;;;;;2074890;28;99897;-17
2021/08/27 14:11:35;;;;;;;17.17;7.85;;;;;;;;;;2088626;27;99844;-22
2021/08/27 14:12:37;;;;;;;17.08;7.13;;;;;;;;;;2090399;27;100068;-19
2021/08/27 14:13:38;;;;;;;12.90;7.18;;;;;;;;;;2090805;27;100058;-20
2021/08/27 14:14:38;;;;;;;;;;;;;;;;;;2091810;27;99936;-18
2021/08/27 14:15:39;;;;;;;19.70;6.78;;;;;;;;;;2084027;27;100015;-17
2021/08/27 14:16:40;;;;;;;;;;;;;;;;;;2088130;27;99947;-22
2021/08/27 14:17:42;;;;;;;14.77;7.45;;;;;;;;;;2090889;27;100175;-21
2021/08/27 14:18:43;;;;;;;11.60;6.63;;;;;;;;;;2091424;27;100219;-21
2021/08/27 14:19:44;;;;;;;;;;;;;;;;;;2091555;27;99894;-16
2021/08/27 14:20:46;;;;;;;15.82;6.57;;;;;;;;;;2091030;27;99870;-20
2021/08/27 14:21:47;;;;;;;14.68;6.57;;;;;;;;;;2089039;27;99997;-15
2021/08/27 14:22:49;;;;;;;;;;;;;;;;;;2090531;27;100281;-18
2021/08/27 14:23:50;;;;;;;14.30;6.93;;;;;;;;;;2090143;27;100007;-21
2021/08/27 14:24:59;;;;;;;16.73;7.00;;;;;;;;;;2091369;27;99973;-19
2021/08/27 14:26:01;;;;;;;17.38;7.10;;;;;;;;;;2090396;27;100113;-17
2021/08/27 14:27:02;;;;;;;14.70;6.60;;;;;;;;;;2090263;27;100062;-17
2021/08/27 14:28:03;;;;;;;;;;;;;;;;;;2091001;27;99906;-19
2021/08/27 14:29:05;;;;;;;14.55;7.07;;;;;;;;;;2089117;27;100690;-16
2021/08/27 14:30:08;;;;;;;14.02;7.05;;;;;;;;;;2083246;27;99933;-18
2021/08/27 14:31:10;;;;;;;11.38;6.68;;;;;;;;;;2084692;27;99938;-20
2021/08/27 14:32:11;;;;;;;14.02;6.95;;;;;;;;;;2081996;28;100375;-17
2021/08/27 14:33:12;;;;;;;;;;;;;;;;;;2082461;27;99804;-16
2021/08/27 14:34:13;;;;;;;14.57;6.75;;;;;;;;;;2099154;27;99986;-15
2021/08/27 14:35:14;;;;;;;14.30;6.32;;;;;;;;;;2098037;27;100076;-16
2021/08/27 14:36:16;;;;;;;16.00;6.43;;;;;;;;;;2082447;27;99975;-16
2021/08/27 14:37:17;;;;;;;14.82;6.53;;;;;;;;;;2078913;28;100002;-18
2021/08/27 14:38:18;;;;;;;13.20;6.00;;;;;;;;;;2073372;28;100020;-16
2021/08/27 14:39:18;;;;;;;;;;;;;;;;;;2082302;27;100132;-17
2021/08/27 14:40:19;;;;;;;17.27;6.82;;;;;;;;;;2082790;27;99967;-18
2021/08/27 14:41:20;;;;;;;13.27;6.53;;;;;;;;;;2085325;27;100124;-19
2021/08/27 14:42:21;;;;;;;;;;;;;;;;;;2091609;27;99998;-17
2021/08/27 14:43:22;;;;;;;13.32;6.40;;;;;;;;;;2090940;27;100309;-21
2021/08/27 14:44:23;;;;;;;12.05;6.70;;;;;;;;;;2091333;27;99951;-19
2021/08/27 14:45:27;;;;;;;13.23;7.10;;;;;;;;;;2090650;27;100091;-17
2021/08/27 14:46:28;;;;;;;10.48;6.28;;;;;;;;;;2091126;27;99984;-18
2021/08/27 14:47:29;;;;;;;13.88;6.72;;;;;;;;;;2090993;27;100025;-20
2021/08/27 14:48:30;;;;;;;13.80;7.07;;;;;;;;;;2091499;27;100279;-19
2021/08/27 14:49:32;;;;;;;;;;;;;;;;;;2090405;27;100023;-18
2021/08/27 14:50:33;;;;;;;12.75;6.47;;;;;;;;;;2090328;27;99932;-28
2021/08/27 14:51:34;;;;;;;11.80;6.43;;;;;;;;;;2090084;27;100526;-16
2021/08/27 14:52:35;;;;;;;;;;;;;;;;;;2090963;27;99920;-19
2021/08/27 14:53:36;;;;;;;13.95;6.72;;;;;;;;;;2090129;27;100077;-20
2021/08/27 14:54:37;;;;;;;11.35;6.57;;;;;;;;;;2089551;27;100031;-18
2021/08/27 14:55:38;;;;;;;13.85;6.63;;;;;;;;;;2083822;27;100108;-18
2021/08/27 14:56:39;;;;;;;12.27;6.15;;;;;;;;;;2085062;27;100142;-19
2021/08/27 14:57:40;;;;;;;15.40;6.65;;;;;;;;;;2090960;27;100038;-16
2021/08/27 14:58:41;;;;;;;12.38;6.05;;;;;;;;;;2091232;27;99884;-19
2021/08/27 14:59:42;;;;;;;11.70;6.65;;;;;;;;;;2090600;27;99847;-19
2021/08/27 15:00:43;;;;;;;13.77;6.93;;;;;;;;;;2091305;27;99870;-17
2021/08/27 15:01:43;;;;;;;;;;;;;;;;;;2091177;27;101023;-19
2021/08/27 15:02:44;;;;;;;9.05;6.20;;;;;;;;;;2091266;27;99865;-20
2021/08/27 15:03:45;;;;;;;9.70;6.38;;;;;;;;;;2082700;27;99912;-19
2021/08/27 15:04:46;;;;;;;11.55;6.97;;;;;;;;;;2082011;28;100007;-17
2021/08/27 15:05:47;;;;;;;14.27;6.78;;;;;;;;;;2089521;27;100030;-20
2021/08/27 15:06:48;;;;;;;;;;;;;;;;;;2086387;27;101232;-19
2021/08/27 15:07:49;;;;;;;10.63;6.28;;;;;;;;;;2082711;27;100095;-15
2021/08/27 15:08:50;;;;;;;8.68;6.43;;;;;;;;;;2082921;27;99892;-18
2021/08/27 15:09:51;;;;;;;13.00;6.25;;;;;;;;;;2082203;27;99997;-20
2021/08/27 15:10:52;;;;;;;;;;;;;;;;;;2083132;27;99825;-21
2021/08/27 15:11:54;;;;;;;13.23;6.57;;;;;;;;;;2086583;27;100139;-18
2021/08/27 15:12:55;;;;;;;14.70;6.35;;;;;;;;;;2081812;27;99892;-21
2021/08/27 15:13:56;;;;;;;;;;;;;;;;;;2082811;27;99824;-17
2021/08/27 15:14:57;;;;;;;12.75;6.15;;;;;;;;;;2090858;27;99951;-17
2021/08/27 15:15:58;;;;;;;14.73;6.70;;;;;;;;;;2090832;27;99921;-18
2021/08/27 15:16:59;;;;;;;12.93;6.15;;;;;;;;;;2089422;27;100252;-19
2021/08/27 15:18:00;;;;;;;;;;;;;;;;;;2082241;28;100159;-21
2021/08/27 15:19:00;;;;;;;11.00;6.40;;;;;;;;;;2082546;27;99978;-20
2021/08/27 15:20:02;;;;;;;11.68;6.47;;;;;;;;;;2090349;27;100021;-17